sensor_id;sensor_type;location;lat;lon;timestamp;pressure;altitude;pressure_sealevel;temperature;humidity
72124;BME280;63818;37.134;-8.548;2024-02-26T00:01:12;101333.8;;;15.1;100.0
72124;BME280;63818;37.134;-8.548;2024-02-26T00:06:03;101324.2;;;15.2;100.0
72124;BME280;63818;37.134;-8.548;2024-02-26T00:10:51;101318.0;;;15.3;100.0
72124;BME280;63818;37.134;-8.548;2024-02-26T00:15:39;101319.4;;;15.2;100.0
72124;BME280;63818;37.134;-8.548;2024-02-26T00:20:27;101297.1;;;15.2;100.0
72124;BME280;63818;37.134;-8.548;2024-02-26T00:25:15;101310.8;;;15.3;100.0
72124;BME280;63818;37.134;-8.548;2024-02-26T00:30:03;101297.3;;;15.2;100.0
72124;BME280;63818;37.134;-8.548;2024-02-26T00:34:53;101302.4;;;15.2;100.0
72124;BME280;63818;37.134;-8.548;2024-02-26T00:39:41;101301.1;;;15.3;100.0
72124;BME280;63818;37.134;-8.548;2024-02-26T00:44:29;101288.0;;;15.3;100.0
72124;BME280;63818;37.134;-8.548;2024-02-26T00:49:23;101294.2;;;15.3;100.0
72124;BME280;63818;37.134;-8.548;2024-02-26T00:54:11;101280.8;;;15.4;100.0
72124;BME280;63818;37.134;-8.548;2024-02-26T00:59:04;101284.6;;;15.4;100.0
72124;BME280;63818;37.134;-8.548;2024-02-26T01:03:52;101287.8;;;15.5;100.0
72124;BME280;63818;37.134;-8.548;2024-02-26T01:08:43;101268.0;;;15.6;100.0
72124;BME280;63818;37.134;-8.548;2024-02-26T01:13:31;101255.6;;;15.6;100.0
72124;BME280;63818;37.134;-8.548;2024-02-26T01:18:25;101247.4;;;15.6;100.0
72124;BME280;63818;37.134;-8.548;2024-02-26T01:23:14;101238.8;;;15.7;100.0
72124;BME280;63818;37.134;-8.548;2024-02-26T01:28:06;101226.2;;;15.7;100.0
72124;BME280;63818;37.134;-8.548;2024-02-26T01:32:54;101217.4;;;15.8;100.0
72124;BME280;63818;37.134;-8.548;2024-02-26T01:37:46;101213.4;;;15.7;100.0
72124;BME280;63818;37.134;-8.548;2024-02-26T01:42:34;101191.7;;;15.7;100.0
72124;BME280;63818;37.134;-8.548;2024-02-26T01:47:25;101180.3;;;15.8;100.0
72124;BME280;63818;37.134;-8.548;2024-02-26T01:52:16;101189.7;;;15.8;100.0
72124;BME280;63818;37.134;-8.548;2024-02-26T01:57:08;101202.0;;;15.8;100.0
72124;BME280;63818;37.134;-8.548;2024-02-26T02:02:01;101152.5;;;15.8;100.0
72124;BME280;63818;37.134;-8.548;2024-02-26T02:06:53;101138.9;;;15.8;100.0
72124;BME280;63818;37.134;-8.548;2024-02-26T02:11:43;101135.6;;;15.7;100.0
72124;BME280;63818;37.134;-8.548;2024-02-26T02:16:33;101135.3;;;15.8;100.0
72124;BME280;63818;37.134;-8.548;2024-02-26T02:21:21;101110.9;;;15.8;100.0
72124;BME280;63818;37.134;-8.548;2024-02-26T02:26:09;101146.6;;;15.8;100.0
72124;BME280;63818;37.134;-8.548;2024-02-26T02:30:57;101125.4;;;15.8;100.0
72124;BME280;63818;37.134;-8.548;2024-02-26T02:35:45;101079.0;;;15.8;100.0
72124;BME280;63818;37.134;-8.548;2024-02-26T02:40:33;101072.1;;;15.8;100.0
72124;BME280;63818;37.134;-8.548;2024-02-26T02:45:26;101080.7;;;15.9;100.0
72124;BME280;63818;37.134;-8.548;2024-02-26T02:50:14;101060.3;;;15.9;100.0
72124;BME280;63818;37.134;-8.548;2024-02-26T02:55:05;101070.0;;;15.9;100.0
72124;BME280;63818;37.134;-8.548;2024-02-26T03:00:02;101026.0;;;15.9;100.0
72124;BME280;63818;37.134;-8.548;2024-02-26T03:04:50;101015.5;;;15.9;100.0
72124;BME280;63818;37.134;-8.548;2024-02-26T03:09:38;101040.6;;;15.9;100.0
72124;BME280;63818;37.134;-8.548;2024-02-26T03:14:27;101056.8;;;15.5;100.0
72124;BME280;63818;37.134;-8.548;2024-02-26T03:19:16;101045.0;;;15.1;100.0
72124;BME280;63818;37.134;-8.548;2024-02-26T03:24:03;101071.0;;;14.8;100.0
72124;BME280;63818;37.134;-8.548;2024-02-26T03:28:54;101075.4;;;14.6;100.0
72124;BME280;63818;37.134;-8.548;2024-02-26T03:33:45;101094.3;;;14.6;100.0
72124;BME280;63818;37.134;-8.548;2024-02-26T03:38:38;101087.9;;;14.6;99.9
72124;BME280;63818;37.134;-8.548;2024-02-26T03:43:26;101098.6;;;14.6;98.7
72124;BME280;63818;37.134;-8.548;2024-02-26T03:48:16;101093.6;;;14.5;97.5
72124;BME280;63818;37.134;-8.548;2024-02-26T03:53:06;101103.1;;;14.4;98.4
72124;BME280;63818;37.134;-8.548;2024-02-26T03:57:54;101099.3;;;14.4;98.9
72124;BME280;63818;37.134;-8.548;2024-02-26T04:02:46;101093.3;;;14.2;100.0
72124;BME280;63818;37.134;-8.548;2024-02-26T04:07:34;101083.2;;;14.0;99.9
72124;BME280;63818;37.134;-8.548;2024-02-26T04:12:24;101077.3;;;14.0;98.5
72124;BME280;63818;37.134;-8.548;2024-02-26T04:17:15;101070.9;;;14.0;98.8
72124;BME280;63818;37.134;-8.548;2024-02-26T04:22:05;101076.0;;;14.0;97.7
72124;BME280;63818;37.134;-8.548;2024-02-26T04:27:01;101073.0;;;13.7;96.2
72124;BME280;63818;37.134;-8.548;2024-02-26T04:31:49;101071.0;;;13.7;95.5
72124;BME280;63818;37.134;-8.548;2024-02-26T04:36:37;101064.9;;;13.7;95.5
72124;BME280;63818;37.134;-8.548;2024-02-26T04:41:30;101061.3;;;13.7;94.5
72124;BME280;63818;37.134;-8.548;2024-02-26T04:46:23;101077.0;;;13.8;93.9
72124;BME280;63818;37.134;-8.548;2024-02-26T04:51:11;101073.7;;;13.6;94.4
72124;BME280;63818;37.134;-8.548;2024-02-26T04:56:01;101072.7;;;13.8;94.5
72124;BME280;63818;37.134;-8.548;2024-02-26T05:00:49;101094.5;;;13.7;94.7
72124;BME280;63818;37.134;-8.548;2024-02-26T05:05:42;101104.0;;;13.5;95.6
72124;BME280;63818;37.134;-8.548;2024-02-26T05:10:30;101114.3;;;13.5;95.9
72124;BME280;63818;37.134;-8.548;2024-02-26T05:15:25;101103.5;;;13.6;95.6
72124;BME280;63818;37.134;-8.548;2024-02-26T05:20:13;101101.5;;;13.6;95.3
72124;BME280;63818;37.134;-8.548;2024-02-26T05:25:03;101111.8;;;13.7;94.7
72124;BME280;63818;37.134;-8.548;2024-02-26T05:29:52;101095.1;;;13.8;94.6
72124;BME280;63818;37.134;-8.548;2024-02-26T05:34:43;101084.3;;;13.9;93.7
72124;BME280;63818;37.134;-8.548;2024-02-26T05:39:31;101091.6;;;14.0;93.4
72124;BME280;63818;37.134;-8.548;2024-02-26T05:44:25;101104.2;;;14.0;92.6
72124;BME280;63818;37.134;-8.548;2024-02-26T05:49:13;101109.1;;;13.8;93.0
72124;BME280;63818;37.134;-8.548;2024-02-26T05:54:07;101111.2;;;13.8;93.3
72124;BME280;63818;37.134;-8.548;2024-02-26T05:58:55;101117.2;;;13.9;93.5
72124;BME280;63818;37.134;-8.548;2024-02-26T06:03:46;101115.6;;;13.9;93.5
72124;BME280;63818;37.134;-8.548;2024-02-26T06:08:34;101118.8;;;13.7;94.6
72124;BME280;63818;37.134;-8.548;2024-02-26T06:13:28;101125.0;;;13.8;94.7
72124;BME280;63818;37.134;-8.548;2024-02-26T06:18:16;101139.9;;;13.9;95.0
72124;BME280;63818;37.134;-8.548;2024-02-26T06:23:07;101148.2;;;13.8;96.2
72124;BME280;63818;37.134;-8.548;2024-02-26T06:27:57;101144.2;;;13.8;97.1
72124;BME280;63818;37.134;-8.548;2024-02-26T06:32:46;101153.1;;;13.8;98.2
72124;BME280;63818;37.134;-8.548;2024-02-26T06:37:41;101141.2;;;13.7;99.1
72124;BME280;63818;37.134;-8.548;2024-02-26T06:42:29;101150.4;;;13.7;99.8
72124;BME280;63818;37.134;-8.548;2024-02-26T06:47:20;101176.6;;;13.7;99.8
72124;BME280;63818;37.134;-8.548;2024-02-26T06:52:11;101171.2;;;13.7;99.1
72124;BME280;63818;37.134;-8.548;2024-02-26T06:56:59;101174.9;;;13.7;98.2
72124;BME280;63818;37.134;-8.548;2024-02-26T07:01:57;101183.9;;;13.8;96.4
72124;BME280;63818;37.134;-8.548;2024-02-26T07:06:45;101161.0;;;13.8;93.9
72124;BME280;63818;37.134;-8.548;2024-02-26T07:11:33;101172.2;;;13.8;91.7
72124;BME280;63818;37.134;-8.548;2024-02-26T07:16:23;101167.4;;;13.9;89.4
72124;BME280;63818;37.134;-8.548;2024-02-26T07:21:11;101172.6;;;13.9;89.0
72124;BME280;63818;37.134;-8.548;2024-02-26T07:26:09;101183.1;;;13.9;87.4
72124;BME280;63818;37.134;-8.548;2024-02-26T07:30:58;101192.7;;;14.1;86.7
72124;BME280;63818;37.134;-8.548;2024-02-26T07:35:48;101201.1;;;14.0;85.5
72124;BME280;63818;37.134;-8.548;2024-02-26T07:40:36;101211.4;;;14.1;84.8
72124;BME280;63818;37.134;-8.548;2024-02-26T07:45:31;101218.9;;;14.1;84.6
72124;BME280;63818;37.134;-8.548;2024-02-26T07:50:21;101222.5;;;14.1;84.4
72124;BME280;63818;37.134;-8.548;2024-02-26T07:55:09;101225.2;;;14.1;84.7
72124;BME280;63818;37.134;-8.548;2024-02-26T07:59:59;101238.8;;;14.1;84.5
72124;BME280;63818;37.134;-8.548;2024-02-26T08:04:47;101238.6;;;14.2;83.4
72124;BME280;63818;37.134;-8.548;2024-02-26T08:09:40;101233.2;;;14.0;80.1
72124;BME280;63818;37.134;-8.548;2024-02-26T08:14:28;101252.8;;;14.1;79.2
72124;BME280;63818;37.134;-8.548;2024-02-26T08:19:16;101233.5;;;14.1;76.3
72124;BME280;63818;37.134;-8.548;2024-02-26T08:24:04;101251.9;;;14.1;72.9
72124;BME280;63818;37.134;-8.548;2024-02-26T08:28:54;101254.5;;;14.2;71.8
72124;BME280;63818;37.134;-8.548;2024-02-26T08:33:45;101268.9;;;14.1;72.4
72124;BME280;63818;37.134;-8.548;2024-02-26T08:38:33;101275.5;;;14.1;72.5
72124;BME280;63818;37.134;-8.548;2024-02-26T08:43:23;101274.8;;;14.0;71.5
72124;BME280;63818;37.134;-8.548;2024-02-26T08:48:13;101269.3;;;14.0;70.3
72124;BME280;63818;37.134;-8.548;2024-02-26T08:53:03;101284.2;;;14.1;69.7
72124;BME280;63818;37.134;-8.548;2024-02-26T08:57:51;101276.3;;;14.2;69.7
72124;BME280;63818;37.134;-8.548;2024-02-26T09:02:41;101300.7;;;14.2;69.4
72124;BME280;63818;37.134;-8.548;2024-02-26T09:07:31;101314.1;;;14.3;70.4
72124;BME280;63818;37.134;-8.548;2024-02-26T09:12:19;101323.0;;;14.2;71.2
72124;BME280;63818;37.134;-8.548;2024-02-26T09:17:13;101316.5;;;14.3;71.3
72124;BME280;63818;37.134;-8.548;2024-02-26T09:22:01;101328.6;;;14.4;70.2
72124;BME280;63818;37.134;-8.548;2024-02-26T09:26:50;101320.0;;;14.3;70.9
72124;BME280;63818;37.134;-8.548;2024-02-26T09:31:38;101303.5;;;14.3;69.0
72124;BME280;63818;37.134;-8.548;2024-02-26T09:41:19;101345.6;;;14.4;65.6
72124;BME280;63818;37.134;-8.548;2024-02-26T09:46:12;101308.0;;;14.5;64.7
72124;BME280;63818;37.134;-8.548;2024-02-26T09:51:01;101309.7;;;14.5;64.8
72124;BME280;63818;37.134;-8.548;2024-02-26T09:55:51;101317.0;;;14.6;65.1
72124;BME280;63818;37.134;-8.548;2024-02-26T10:00:40;101319.7;;;14.5;63.8
72124;BME280;63818;37.134;-8.548;2024-02-26T10:05:31;101338.8;;;14.5;62.4
72124;BME280;63818;37.134;-8.548;2024-02-26T10:10:22;101341.8;;;14.4;60.0
72124;BME280;63818;37.134;-8.548;2024-02-26T10:15:10;101327.3;;;14.5;60.0
72124;BME280;63818;37.134;-8.548;2024-02-26T10:20:16;101339.4;;;14.5;60.4
72124;BME280;63818;37.134;-8.548;2024-02-26T10:25:05;101334.7;;;14.6;61.5
72124;BME280;63818;37.134;-8.548;2024-02-26T10:29:56;101349.0;;;14.7;61.9
72124;BME280;63818;37.134;-8.548;2024-02-26T10:34:45;101374.1;;;14.5;63.6
72124;BME280;63818;37.134;-8.548;2024-02-26T10:39:36;101403.6;;;14.3;69.8
72124;BME280;63818;37.134;-8.548;2024-02-26T10:44:25;101419.2;;;14.1;71.1
72124;BME280;63818;37.134;-8.548;2024-02-26T10:54:12;101388.6;;;13.9;69.3
72124;BME280;63818;37.134;-8.548;2024-02-26T10:59:03;101400.7;;;14.1;70.5
72124;BME280;63818;37.134;-8.548;2024-02-26T11:03:52;101390.1;;;14.1;70.3
72124;BME280;63818;37.134;-8.548;2024-02-26T11:08:43;101394.5;;;14.2;69.8
72124;BME280;63818;37.134;-8.548;2024-02-26T11:13:35;101397.9;;;14.2;69.7
72124;BME280;63818;37.134;-8.548;2024-02-26T11:18:26;101384.9;;;14.4;68.3
72124;BME280;63818;37.134;-8.548;2024-02-26T11:23:15;101380.0;;;14.6;68.4
72124;BME280;63818;37.134;-8.548;2024-02-26T11:28:05;101387.3;;;14.6;67.1
72124;BME280;63818;37.134;-8.548;2024-02-26T11:32:54;101369.5;;;14.7;65.9
72124;BME280;63818;37.134;-8.548;2024-02-26T11:38:03;101362.3;;;14.6;61.7
72124;BME280;63818;37.134;-8.548;2024-02-26T11:42:51;101405.3;;;14.6;58.9
72124;BME280;63818;37.134;-8.548;2024-02-26T11:47:40;101378.2;;;14.6;58.3
72124;BME280;63818;37.134;-8.548;2024-02-26T11:52:33;101354.1;;;14.5;59.8
72124;BME280;63818;37.134;-8.548;2024-02-26T11:57:22;101360.6;;;14.6;61.2
72124;BME280;63818;37.134;-8.548;2024-02-26T12:02:10;101363.6;;;14.6;60.7
72124;BME280;63818;37.134;-8.548;2024-02-26T12:07:01;101365.5;;;14.6;60.6
72124;BME280;63818;37.134;-8.548;2024-02-26T12:11:50;101387.3;;;14.8;60.9
72124;BME280;63818;37.134;-8.548;2024-02-26T12:16:39;101346.1;;;14.7;56.7
72124;BME280;63818;37.134;-8.548;2024-02-26T12:21:29;101350.7;;;14.7;56.1
72124;BME280;63818;37.134;-8.548;2024-02-26T12:26:18;101349.6;;;14.8;54.3
72124;BME280;63818;37.134;-8.548;2024-02-26T12:31:08;101334.6;;;14.8;53.4
72124;BME280;63818;37.134;-8.548;2024-02-26T12:35:57;101342.3;;;14.8;53.8
72124;BME280;63818;37.134;-8.548;2024-02-26T12:40:45;101328.1;;;14.8;54.4
72124;BME280;63818;37.134;-8.548;2024-02-26T12:45:43;101334.8;;;14.8;55.0
72124;BME280;63818;37.134;-8.548;2024-02-26T12:50:31;101339.0;;;14.8;56.0
72124;BME280;63818;37.134;-8.548;2024-02-26T12:55:20;101296.0;;;14.8;56.2
72124;BME280;63818;37.134;-8.548;2024-02-26T13:00:11;101291.5;;;14.8;55.2
72124;BME280;63818;37.134;-8.548;2024-02-26T13:05:03;101323.0;;;14.8;54.8
72124;BME280;63818;37.134;-8.548;2024-02-26T13:09:51;101301.5;;;14.8;52.7
72124;BME280;63818;37.134;-8.548;2024-02-26T13:14:41;101342.6;;;14.9;52.1
72124;BME280;63818;37.134;-8.548;2024-02-26T13:19:29;101274.2;;;14.9;51.1
72124;BME280;63818;37.134;-8.548;2024-02-26T13:24:19;101260.6;;;14.9;51.3
72124;BME280;63818;37.134;-8.548;2024-02-26T13:29:09;101261.4;;;15.0;52.8
72124;BME280;63818;37.134;-8.548;2024-02-26T13:34:02;101295.0;;;15.0;52.8
72124;BME280;63818;37.134;-8.548;2024-02-26T13:38:55;101273.9;;;15.1;53.3
72124;BME280;63818;37.134;-8.548;2024-02-26T13:43:43;101289.2;;;15.1;51.0
72124;BME280;63818;37.134;-8.548;2024-02-26T13:48:34;101290.2;;;15.2;49.5
72124;BME280;63818;37.134;-8.548;2024-02-26T13:53:22;101247.8;;;15.2;47.7
72124;BME280;63818;37.134;-8.548;2024-02-26T13:58:11;101243.0;;;15.2;47.5
72124;BME280;63818;37.134;-8.548;2024-02-26T14:03:00;101259.1;;;15.2;49.1
72124;BME280;63818;37.134;-8.548;2024-02-26T14:07:48;101279.4;;;15.3;49.5
72124;BME280;63818;37.134;-8.548;2024-02-26T14:12:36;101292.5;;;15.5;50.4
72124;BME280;63818;37.134;-8.548;2024-02-26T14:17:28;101296.8;;;15.7;51.6
72124;BME280;63818;37.134;-8.548;2024-02-26T14:22:16;101285.7;;;15.5;50.8
72124;BME280;63818;37.134;-8.548;2024-02-26T14:27:05;101304.5;;;15.4;51.4
72124;BME280;63818;37.134;-8.548;2024-02-26T14:31:53;101294.1;;;15.5;51.8
72124;BME280;63818;37.134;-8.548;2024-02-26T14:36:43;101278.3;;;15.6;49.1
72124;BME280;63818;37.134;-8.548;2024-02-26T14:41:31;101307.2;;;15.6;48.0
72124;BME280;63818;37.134;-8.548;2024-02-26T14:46:19;101326.4;;;15.8;48.8
72124;BME280;63818;37.134;-8.548;2024-02-26T14:51:08;101297.8;;;15.8;49.1
72124;BME280;63818;37.134;-8.548;2024-02-26T14:55:58;101309.4;;;16.1;50.4
72124;BME280;63818;37.134;-8.548;2024-02-26T15:00:46;101302.8;;;16.3;50.7
72124;BME280;63818;37.134;-8.548;2024-02-26T15:05:34;101296.2;;;16.3;51.0
72124;BME280;63818;37.134;-8.548;2024-02-26T15:10:24;101303.3;;;16.6;49.5
72124;BME280;63818;37.134;-8.548;2024-02-26T15:15:11;101273.1;;;16.8;48.4
72124;BME280;63818;37.134;-8.548;2024-02-26T15:20:00;101272.4;;;17.3;47.4
72124;BME280;63818;37.134;-8.548;2024-02-26T15:24:48;101267.0;;;17.8;45.4
72124;BME280;63818;37.134;-8.548;2024-02-26T15:29:36;101265.1;;;17.9;44.5
72124;BME280;63818;37.134;-8.548;2024-02-26T15:34:24;101297.5;;;17.7;45.6
72124;BME280;63818;37.134;-8.548;2024-02-26T15:39:12;101250.3;;;18.0;45.7
72124;BME280;63818;37.134;-8.548;2024-02-26T15:44:00;101252.8;;;18.2;45.2
72124;BME280;63818;37.134;-8.548;2024-02-26T15:48:50;101261.4;;;18.4;43.6
72124;BME280;63818;37.134;-8.548;2024-02-26T15:53:38;101233.6;;;18.2;42.9
72124;BME280;63818;37.134;-8.548;2024-02-26T15:58:25;101246.8;;;18.2;43.0
72124;BME280;63818;37.134;-8.548;2024-02-26T16:03:13;101264.9;;;18.1;43.1
72124;BME280;63818;37.134;-8.548;2024-02-26T16:08:05;101227.0;;;18.2;43.6
72124;BME280;63818;37.134;-8.548;2024-02-26T16:12:55;101241.6;;;18.4;41.9
72124;BME280;63818;37.134;-8.548;2024-02-26T16:17:44;101252.9;;;18.1;41.9
72124;BME280;63818;37.134;-8.548;2024-02-26T16:22:33;101274.1;;;17.8;42.8
72124;BME280;63818;37.134;-8.548;2024-02-26T16:27:21;101266.1;;;17.6;44.5
72124;BME280;63818;37.134;-8.548;2024-02-26T16:32:09;101237.4;;;17.6;45.8
72124;BME280;63818;37.134;-8.548;2024-02-26T16:36:57;101251.1;;;17.1;47.4
72124;BME280;63818;37.134;-8.548;2024-02-26T16:41:45;101292.0;;;17.2;46.7
72124;BME280;63818;37.134;-8.548;2024-02-26T16:46:33;101263.9;;;17.3;46.4
72124;BME280;63818;37.134;-8.548;2024-02-26T16:51:21;101274.1;;;17.2;46.6
72124;BME280;63818;37.134;-8.548;2024-02-26T16:56:11;101266.5;;;16.8;46.4
72124;BME280;63818;37.134;-8.548;2024-02-26T17:00:59;101247.5;;;16.6;48.0
72124;BME280;63818;37.134;-8.548;2024-02-26T17:05:49;101265.1;;;16.7;48.1
72124;BME280;63818;37.134;-8.548;2024-02-26T17:10:38;101244.6;;;16.5;49.7
72124;BME280;63818;37.134;-8.548;2024-02-26T17:15:26;101274.2;;;16.5;50.4
72124;BME280;63818;37.134;-8.548;2024-02-26T17:20:14;101271.6;;;16.4;50.9
72124;BME280;63818;37.134;-8.548;2024-02-26T17:25:03;101270.0;;;16.2;51.0
72124;BME280;63818;37.134;-8.548;2024-02-26T17:29:51;101287.5;;;16.2;51.3
72124;BME280;63818;37.134;-8.548;2024-02-26T17:34:39;101289.4;;;16.1;51.6
72124;BME280;63818;37.134;-8.548;2024-02-26T17:39:29;101294.9;;;16.0;50.9
72124;BME280;63818;37.134;-8.548;2024-02-26T17:44:16;101294.5;;;15.8;51.0
72124;BME280;63818;37.134;-8.548;2024-02-26T17:49:04;101286.9;;;15.6;50.1
72124;BME280;63818;37.134;-8.548;2024-02-26T17:53:57;101276.2;;;15.4;49.5
72124;BME280;63818;37.134;-8.548;2024-02-26T17:58:45;101307.9;;;15.0;49.6
72124;BME280;63818;37.134;-8.548;2024-02-26T18:03:34;101316.3;;;14.9;50.4
72124;BME280;63818;37.134;-8.548;2024-02-26T18:08:22;101321.2;;;15.0;51.2
72124;BME280;63818;37.134;-8.548;2024-02-26T18:13:15;101333.5;;;14.9;51.8
72124;BME280;63818;37.134;-8.548;2024-02-26T18:18:03;101335.8;;;14.6;53.1
72124;BME280;63818;37.134;-8.548;2024-02-26T18:22:54;101342.0;;;14.4;53.4
72124;BME280;63818;37.134;-8.548;2024-02-26T18:27:47;101330.8;;;14.5;53.4
72124;BME280;63818;37.134;-8.548;2024-02-26T18:32:35;101348.2;;;14.7;53.8
72124;BME280;63818;37.134;-8.548;2024-02-26T18:37:25;101354.0;;;14.4;54.1
72124;BME280;63818;37.134;-8.548;2024-02-26T18:42:22;101349.7;;;14.3;54.9
72124;BME280;63818;37.134;-8.548;2024-02-26T18:47:09;101342.2;;;14.1;55.7
72124;BME280;63818;37.134;-8.548;2024-02-26T18:52:02;101372.4;;;14.1;56.5
72124;BME280;63818;37.134;-8.548;2024-02-26T18:56:53;101357.0;;;14.1;56.8
72124;BME280;63818;37.134;-8.548;2024-02-26T19:01:41;101364.0;;;14.1;57.3
72124;BME280;63818;37.134;-8.548;2024-02-26T19:06:29;101379.7;;;14.1;58.4
72124;BME280;63818;37.134;-8.548;2024-02-26T19:11:20;101395.6;;;14.1;59.2
72124;BME280;63818;37.134;-8.548;2024-02-26T19:16:11;101392.2;;;14.2;58.0
72124;BME280;63818;37.134;-8.548;2024-02-26T19:20:59;101383.9;;;14.3;56.4
72124;BME280;63818;37.134;-8.548;2024-02-26T19:25:47;101383.6;;;14.3;56.3
72124;BME280;63818;37.134;-8.548;2024-02-26T19:30:39;101412.3;;;14.2;56.4
72124;BME280;63818;37.134;-8.548;2024-02-26T19:35:27;101416.0;;;14.1;55.4
72124;BME280;63818;37.134;-8.548;2024-02-26T19:45:09;101407.7;;;14.0;54.3
72124;BME280;63818;37.134;-8.548;2024-02-26T19:49:57;101449.7;;;14.1;54.4
72124;BME280;63818;37.134;-8.548;2024-02-26T19:54:47;101430.3;;;14.1;53.8
72124;BME280;63818;37.134;-8.548;2024-02-26T19:59:35;101436.0;;;14.1;52.8
72124;BME280;63818;37.134;-8.548;2024-02-26T20:04:29;101434.3;;;14.2;52.7
72124;BME280;63818;37.134;-8.548;2024-02-26T20:09:17;101447.0;;;14.1;52.8
72124;BME280;63818;37.134;-8.548;2024-02-26T20:14:08;101464.8;;;14.2;52.7
72124;BME280;63818;37.134;-8.548;2024-02-26T20:19:00;101471.5;;;14.2;53.0
72124;BME280;63818;37.134;-8.548;2024-02-26T20:23:48;101452.4;;;14.2;53.4
72124;BME280;63818;37.134;-8.548;2024-02-26T20:28:37;101472.5;;;14.3;53.3
72124;BME280;63818;37.134;-8.548;2024-02-26T20:33:30;101479.1;;;14.2;53.1
72124;BME280;63818;37.134;-8.548;2024-02-26T20:38:18;101481.7;;;14.2;53.3
72124;BME280;63818;37.134;-8.548;2024-02-26T20:43:06;101481.9;;;14.3;53.1
72124;BME280;63818;37.134;-8.548;2024-02-26T20:47:54;101489.5;;;14.2;53.5
72124;BME280;63818;37.134;-8.548;2024-02-26T20:52:42;101504.1;;;14.2;53.6
72124;BME280;63818;37.134;-8.548;2024-02-26T20:57:30;101507.8;;;14.1;54.1
72124;BME280;63818;37.134;-8.548;2024-02-26T21:02:18;101523.7;;;14.1;54.1
72124;BME280;63818;37.134;-8.548;2024-02-26T21:07:09;101528.9;;;14.2;54.3
72124;BME280;63818;37.134;-8.548;2024-02-26T21:11:56;101544.9;;;14.0;54.6
72124;BME280;63818;37.134;-8.548;2024-02-26T21:16:44;101551.9;;;13.8;55.5
72124;BME280;63818;37.134;-8.548;2024-02-26T21:21:33;101547.3;;;13.9;55.1
72124;BME280;63818;37.134;-8.548;2024-02-26T21:26:20;101547.4;;;14.0;55.3
72124;BME280;63818;37.134;-8.548;2024-02-26T21:31:09;101535.4;;;13.6;55.5
72124;BME280;63818;37.134;-8.548;2024-02-26T21:36:07;101534.2;;;13.9;55.5
72124;BME280;63818;37.134;-8.548;2024-02-26T21:40:55;101555.1;;;13.6;55.6
72124;BME280;63818;37.134;-8.548;2024-02-26T21:45:43;101555.3;;;13.7;55.5
72124;BME280;63818;37.134;-8.548;2024-02-26T21:50:40;101557.0;;;13.8;55.2
72124;BME280;63818;37.134;-8.548;2024-02-26T21:55:31;101569.1;;;13.7;55.7
72124;BME280;63818;37.134;-8.548;2024-02-26T22:00:19;101593.2;;;13.8;55.3
72124;BME280;63818;37.134;-8.548;2024-02-26T22:05:09;101583.8;;;13.6;56.6
72124;BME280;63818;37.134;-8.548;2024-02-26T22:09:57;101592.9;;;13.7;56.3
72124;BME280;63818;37.134;-8.548;2024-02-26T22:14:47;101577.5;;;13.5;57.3
72124;BME280;63818;37.134;-8.548;2024-02-26T22:19:37;101613.7;;;13.8;56.8
72124;BME280;63818;37.134;-8.548;2024-02-26T22:24:25;101615.5;;;13.8;56.8
72124;BME280;63818;37.134;-8.548;2024-02-26T22:29:16;101634.7;;;13.7;56.8
72124;BME280;63818;37.134;-8.548;2024-02-26T22:34:04;101633.6;;;13.7;56.7
72124;BME280;63818;37.134;-8.548;2024-02-26T22:38:54;101636.6;;;13.6;56.8
72124;BME280;63818;37.134;-8.548;2024-02-26T22:43:42;101615.5;;;13.7;56.1
72124;BME280;63818;37.134;-8.548;2024-02-26T22:48:31;101622.2;;;13.8;56.2
72124;BME280;63818;37.134;-8.548;2024-02-26T22:53:19;101632.6;;;13.6;56.2
72124;BME280;63818;37.134;-8.548;2024-02-26T22:58:09;101651.4;;;13.5;56.2
72124;BME280;63818;37.134;-8.548;2024-02-26T23:02:57;101652.4;;;13.4;56.8
72124;BME280;63818;37.134;-8.548;2024-02-26T23:07:45;101663.2;;;13.3;57.6
72124;BME280;63818;37.134;-8.548;2024-02-26T23:12:34;101641.6;;;13.6;57.0
72124;BME280;63818;37.134;-8.548;2024-02-26T23:17:24;101641.7;;;13.5;57.4
72124;BME280;63818;37.134;-8.548;2024-02-26T23:22:12;101639.0;;;13.2;58.0
72124;BME280;63818;37.134;-8.548;2024-02-26T23:26:59;101660.8;;;13.3;58.5
72124;BME280;63818;37.134;-8.548;2024-02-26T23:31:47;101658.0;;;13.2;58.7
72124;BME280;63818;37.134;-8.548;2024-02-26T23:36:36;101661.7;;;13.2;59.2
72124;BME280;63818;37.134;-8.548;2024-02-26T23:41:26;101634.4;;;13.2;59.8
72124;BME280;63818;37.134;-8.548;2024-02-26T23:46:14;101623.1;;;13.3;59.6
72124;BME280;63818;37.134;-8.548;2024-02-26T23:51:04;101639.8;;;13.0;60.5
72124;BME280;63818;37.134;-8.548;2024-02-26T23:55:52;101637.7;;;13.1;60.1
